Time;durP1;ratioP1;P1;durP2;ratioP2;P2;SDS_P1;SDS_P2;PMS_P1;PMS_P2;Temp;Humidity;BMP_temperature;BMP_pressure;BME280_temperature;BME280_humidity;BME280_pressure;Samples;Min_cycle;Max_cycle;Signal;HPM_P1;HPM_P2
2023/07/14 00:00:34;;;;;;;8.32;5.28;;;;;;;13.53;99.03;98348.16;4958839;28;20054;-67
2023/07/14 00:03:00;;;;;;;8.98;5.97;;;;;;;13.53;98.90;98407.06;4938138;28;20222;-68
2023/07/14 00:05:29;;;;;;;6.40;5.18;;;;;;;13.51;98.71;98401.00;4939866;28;20774;-71
2023/07/14 00:07:56;;;;;;;6.72;5.13;;;;;;;13.50;98.53;98371.72;4939308;28;20054;-68
2023/07/14 00:10:31;;;;;;;9.60;6.07;;;;;;;13.55;98.58;98380.09;4954434;28;20055;-70
2023/07/14 00:13:00;;;;;;;7.20;5.15;;;;;;;13.52;99.00;98375.06;4938348;28;20055;-69
2023/07/14 00:15:26;;;;;;;9.55;5.13;;;;;;;13.53;98.59;98376.75;4957890;28;20050;-68
2023/07/14 00:17:59;;;;;;;8.98;5.90;;;;;;;13.52;98.35;98378.59;4958657;28;20061;-68
2023/07/14 00:20:30;;;;;;;7.45;5.82;;;;;;;13.54;98.05;98383.78;4958553;28;20038;-69
2023/07/14 00:22:57;;;;;;;11.05;5.53;;;;;;;13.52;98.45;98386.63;4957669;28;20034;-67
2023/07/14 00:25:24;;;;;;;6.63;5.22;;;;;;;13.53;98.00;98376.75;4958751;28;20042;-68
2023/07/14 00:27:53;;;;;;;6.35;5.25;;;;;;;13.52;98.46;98391.13;4958635;28;20046;-69
2023/07/14 00:30:23;;;;;;;8.32;5.68;;;;;;;13.53;98.28;98372.25;4957169;28;20050;-69
2023/07/14 00:32:51;;;;;;;7.95;5.15;;;;;;;13.53;98.06;98382.09;4958332;28;20038;-68
2023/07/14 00:35:23;;;;;;;7.55;5.40;;;;;;;13.53;98.00;98368.72;4973279;28;20042;-68
2023/07/14 00:37:54;;;;;;;7.95;5.10;;;;;;;13.53;97.87;98372.25;4957692;28;20413;-68
2023/07/14 00:40:36;;;;;;;8.02;5.60;;;;;;;13.58;98.54;98369.06;4973370;28;20042;-69
2023/07/14 00:43:01;;;;;;;8.65;5.18;;;;;;;13.51;97.85;98374.22;4957219;28;20050;-69
2023/07/14 00:45:30;;;;;;;8.35;5.90;;;;;;;13.52;98.08;98375.06;4973271;28;20038;-70
2023/07/14 00:48:04;;;;;;;7.13;4.93;;;;;;;13.53;98.09;98372.25;4957915;28;20050;-67
2023/07/14 00:50:32;;;;;;;9.55;5.60;;;;;;;13.53;98.10;98374.91;4924220;28;20408;-69
2023/07/14 00:53:02;;;;;;;6.28;5.10;;;;;;;13.54;98.17;98384.63;4958064;28;20489;-68
2023/07/14 00:55:37;;;;;;;5.68;4.50;;;;;;;13.54;97.92;98384.63;4956353;28;20537;-69
2023/07/14 00:58:02;;;;;;;;;;;;;;;13.65;98.01;98388.88;4953194;28;20062;-67
2023/07/14 01:00:30;;;;;;;6.25;4.57;;;;;;;13.58;98.04;98394.00;4957767;28;19917;-68
2023/07/14 01:02:57;;;;;;;8.10;5.05;;;;;;;13.57;98.29;98389.66;4972817;28;20050;-66
2023/07/14 01:05:23;;;;;;;9.95;4.75;;;;;;;13.57;97.95;98395.00;4957768;28;20049;-66
2023/07/14 01:07:51;;;;;;;16.23;5.18;;;;;;;13.60;97.70;98393.84;4957919;28;20155;-71
2023/07/14 01:10:22;;;;;;;7.63;4.80;;;;;;;13.59;97.85;98390.34;4957633;28;20405;-71
2023/07/14 01:12:52;;;;;;;7.82;5.00;;;;;;;13.58;98.10;98385.13;4956643;28;20390;-71
2023/07/14 01:15:19;;;;;;;7.22;4.88;;;;;;;13.60;97.84;98388.50;4957674;28;20042;-68
2023/07/14 01:17:47;;;;;;;7.97;5.22;;;;;;;13.60;98.13;98351.00;4957589;28;20050;-71
2023/07/14 01:20:12;;;;;;;8.52;5.95;;;;;;;13.62;98.16;98397.22;4952913;28;20512;-68
2023/07/14 01:22:44;;;;;;;9.52;5.30;;;;;;;13.62;98.22;98387.34;4940243;28;20050;-68
2023/07/14 01:25:20;;;;;;;9.55;5.70;;;;;;;13.62;98.02;98382.00;4956465;28;20057;-67
2023/07/14 01:27:46;;;;;;;11.65;6.10;;;;;;;13.61;98.15;98395.53;4956050;28;20062;-69
2023/07/14 01:30:12;;;;;;;7.95;4.65;;;;;;;13.60;98.26;98388.50;4942193;28;20043;-69
2023/07/14 01:32:43;;;;;;;8.65;4.90;;;;;;;13.61;98.23;98391.03;4959314;28;20421;-71
2023/07/14 01:35:09;;;;;;;8.30;5.60;;;;;;;13.62;98.06;98394.53;4941019;28;20047;-70
2023/07/14 01:37:39;;;;;;;10.50;5.70;;;;;;;13.64;98.44;98395.22;4956309;28;20077;-71
2023/07/14 01:40:11;;;;;;;7.90;5.70;;;;;;;13.65;98.06;98407.63;4942449;28;20042;-71
2023/07/14 01:42:38;;;;;;;9.13;6.13;;;;;;;13.63;98.10;98409.59;4940847;28;20413;-70
2023/07/14 01:45:04;;;;;;;7.50;5.45;;;;;;;13.64;98.13;98416.66;4955449;28;20046;-70
2023/07/14 01:47:30;;;;;;;8.02;5.50;;;;;;;13.65;97.86;98396.91;4940919;28;20049;-70
2023/07/14 01:49:59;;;;;;;8.85;5.13;;;;;;;13.66;98.20;98393.19;4942548;28;20046;-70
2023/07/14 01:52:30;;;;;;;7.80;4.65;;;;;;;13.68;98.42;98410.78;4944492;28;20460;-70
2023/07/14 01:55:04;;;;;;;8.43;5.13;;;;;;;13.71;97.71;98409.66;4968317;28;20045;-69
2023/07/14 01:57:34;;;;;;;6.40;4.72;;;;;;;13.69;98.19;98408.97;4954531;28;20650;-70
2023/07/14 02:00:10;;;;;;;7.82;5.25;;;;;;;13.73;98.24;98410.34;4969180;28;20038;-68
2023/07/14 02:02:43;;;;;;;7.03;4.93;;;;;;;13.71;97.78;98412.31;4954541;28;20042;-70
2023/07/14 02:05:12;;;;;;;5.60;4.50;;;;;;;13.72;97.98;98414.00;4954323;28;20054;-68
2023/07/14 02:07:37;;;;;;;7.70;5.07;;;;;;;13.72;97.79;98414.84;4971066;28;20527;-68
2023/07/14 02:10:03;;;;;;;7.15;4.72;;;;;;;13.73;97.85;98426.41;4971184;28;20034;-69
2023/07/14 02:12:31;;;;;;;7.30;5.10;;;;;;;13.74;97.41;98422.72;4953052;28;20734;-70
2023/07/14 02:15:05;;;;;;;6.65;4.60;;;;;;;13.80;97.16;98414.03;4952939;28;20043;-68
2023/07/14 02:17:35;;;;;;;10.20;4.95;;;;;;;13.76;97.25;98426.94;4950247;28;20417;-69
2023/07/14 02:20:25;;;;;;;5.53;4.18;;;;;;;13.78;97.13;98432.94;4955067;28;20038;-64
2023/07/14 02:22:53;;;;;;;6.22;4.75;;;;;;;13.77;96.96;98433.09;4956443;28;20057;-65
2023/07/14 02:25:21;;;;;;;5.55;4.45;;;;;;;13.76;97.10;98440.31;4956526;28;20401;-65
2023/07/14 02:27:46;;;;;;;7.45;4.65;;;;;;;13.75;97.13;98440.47;4955968;28;20050;-64
2023/07/14 02:30:18;;;;;;;7.88;4.45;;;;;;;13.75;97.15;98437.81;4956037;28;20050;-67
2023/07/14 02:32:48;;;;;;;6.90;4.25;;;;;;;13.75;96.69;98446.69;4956120;28;20065;-67
2023/07/14 02:35:30;;;;;;;8.27;5.03;;;;;;;13.78;96.61;98450.84;4971240;28;20785;-66
2023/07/14 02:40:36;;;;;;;7.45;5.05;;;;;;;13.77;96.79;98451.84;4951703;28;20043;-67
2023/07/14 02:43:11;;;;;;;12.48;5.25;;;;;;;13.80;96.56;98448.88;4936742;28;20066;-67
2023/07/14 02:45:45;;;;;;;10.85;4.95;;;;;;;13.79;96.67;98447.19;4936542;28;20054;-66
2023/07/14 02:48:15;;;;;;;9.03;4.43;;;;;;;13.78;96.41;98467.78;4937681;28;20050;-69
2023/07/14 02:50:40;;;;;;;8.23;4.47;;;;;;;13.77;96.64;98465.25;4955515;28;20413;-67
2023/07/14 02:53:06;;;;;;;8.20;5.22;;;;;;;13.74;96.84;98471.78;4955833;28;20041;-68
2023/07/14 02:55:31;;;;;;;8.30;4.88;;;;;;;13.74;96.91;98471.78;4955764;28;20793;-66
2023/07/14 02:57:56;;;;;;;7.18;4.88;;;;;;;13.76;96.98;98471.63;4970812;28;20057;-69
2023/07/14 03:00:22;;;;;;;6.03;4.70;;;;;;;13.76;96.59;98475.16;4951392;28;20043;-67
2023/07/14 03:02:47;;;;;;;9.48;4.50;;;;;;;13.75;96.90;98481.50;4936399;28;20057;-69
2023/07/14 03:05:12;;;;;;;9.85;4.97;;;;;;;13.74;96.81;98497.72;4960007;28;20066;-69
2023/07/14 03:07:38;;;;;;;7.63;4.72;;;;;;;13.73;96.85;98485.31;4955625;28;20486;-68
2023/07/14 03:10:04;;;;;;;5.47;4.30;;;;;;;13.73;96.69;98485.31;4955590;28;20046;-69
2023/07/14 03:12:30;;;;;;;8.88;5.00;;;;;;;13.70;96.90;98483.81;4955687;28;20049;-66
2023/07/14 03:14:55;;;;;;;8.30;4.35;;;;;;;13.72;96.28;98489.00;4942395;28;20039;-64
2023/07/14 03:17:21;;;;;;;7.72;5.15;;;;;;;13.73;96.89;98490.69;4938890;28;20057;-64
2023/07/14 03:19:46;;;;;;;6.70;5.20;;;;;;;13.72;97.05;98500.56;4956809;28;20041;-64
2023/07/14 03:22:11;;;;;;;5.65;4.43;;;;;;;13.74;96.77;98487.00;4940242;28;20046;-64
2023/07/14 03:24:36;;;;;;;5.78;4.25;;;;;;;13.74;96.76;98487.00;4939484;28;20049;-63
2023/07/14 03:27:02;;;;;;;6.63;4.20;;;;;;;13.75;96.69;98491.38;4935733;28;20051;-64
2023/07/14 03:29:27;;;;;;;6.95;4.28;;;;;;;13.76;96.63;98493.06;4951297;28;20142;-65
2023/07/14 03:31:52;;;;;;;7.53;4.57;;;;;;;13.77;97.06;98494.72;4955114;28;20505;-65
2023/07/14 03:34:17;;;;;;;6.70;5.22;;;;;;;13.78;97.14;98483.84;4952313;28;20050;-65
2023/07/14 03:36:43;;;;;;;7.97;5.03;;;;;;;13.80;97.07;98497.09;4938149;28;20046;-66
2023/07/14 03:39:22;;;;;;;6.03;4.35;;;;;;;13.85;97.33;98501.97;4937463;28;20055;-65
2023/07/14 03:41:48;;;;;;;7.20;4.95;;;;;;;13.80;96.92;98497.09;4969460;28;20536;-66
2023/07/14 03:44:14;;;;;;;6.65;4.97;;;;;;;13.82;96.74;98484.38;4939725;28;20038;-66
2023/07/14 03:46:39;;;;;;;9.43;5.10;;;;;;;13.84;97.08;98493.09;4937083;28;20486;-65
2023/07/14 03:49:04;;;;;;;6.03;5.15;;;;;;;13.84;97.01;98485.06;4935887;28;20054;-66
2023/07/14 03:51:30;;;;;;;7.70;5.03;;;;;;;13.87;96.80;98492.78;4935877;28;20054;-65
2023/07/14 03:53:55;;;;;;;7.80;4.63;;;;;;;13.87;96.52;98487.44;4934979;28;20049;-66
2023/07/14 03:56:20;;;;;;;9.02;5.80;;;;;;;13.87;97.16;98487.44;4936992;28;20067;-66
2023/07/14 03:58:46;;;;;;;8.43;5.13;;;;;;;13.88;97.01;98502.50;4956472;28;20051;-65
2023/07/14 04:01:11;;;;;;;8.50;5.35;;;;;;;13.88;97.00;98497.16;4937409;28;20508;-67
2023/07/14 04:03:36;;;;;;;8.95;5.60;;;;;;;13.88;97.29;98505.19;4943035;28;20525;-67
2023/07/14 04:06:02;;;;;;;7.97;5.15;;;;;;;13.88;96.42;98510.56;4926160;28;20537;-66
2023/07/14 04:08:27;;;;;;;7.50;5.38;;;;;;;13.87;96.75;98503.50;4939057;28;20409;-66
2023/07/14 04:10:53;;;;;;;7.78;5.50;;;;;;;13.87;96.97;98508.03;4940913;28;20050;-66
2023/07/14 04:13:19;;;;;;;9.93;5.50;;;;;;;13.88;96.93;98504.34;4936799;28;20042;-66
2023/07/14 04:15:44;;;;;;;10.02;6.25;;;;;;;13.87;96.82;98541.00;4938376;28;20062;-66
2023/07/14 04:18:09;;;;;;;13.68;5.60;;;;;;;13.92;96.48;98519.09;4942824;28;20038;-65
2023/07/14 04:20:34;;;;;;;11.75;6.05;;;;;;;13.93;96.49;98515.41;4958963;28;20042;-65
2023/07/14 04:23:00;;;;;;;13.57;6.38;;;;;;;13.94;96.48;98520.63;4958742;28;20497;-66
2023/07/14 04:25:25;;;;;;;15.23;6.53;;;;;;;13.96;96.37;98531.19;4958515;28;20525;-65
2023/07/14 04:27:52;;;;;;;8.75;5.55;;;;;;;13.94;96.00;98530.50;4958502;28;20527;-67
2023/07/14 04:30:18;;;;;;;12.50;6.38;;;;;;;13.94;96.32;98535.84;4958619;28;20050;-67
2023/07/14 04:32:43;;;;;;;9.85;6.05;;;;;;;13.96;96.44;98529.34;4958459;28;20042;-67
2023/07/14 04:35:08;;;;;;;11.93;5.63;;;;;;;13.99;96.32;98534.41;4958536;28;20057;-67
2023/07/14 04:37:34;;;;;;;12.68;6.20;;;;;;;14.01;96.53;98531.53;4958301;28;20057;-67
2023/07/14 04:39:59;;;;;;;11.75;6.38;;;;;;;14.03;96.69;98530.38;4958496;28;20489;-67
2023/07/14 04:42:25;;;;;;;13.75;5.75;;;;;;;14.07;96.48;98529.06;4958440;28;20038;-67
2023/07/14 04:44:51;;;;;;;14.55;5.85;;;;;;;14.11;96.22;98522.38;4973411;28;20061;-67
2023/07/14 04:47:17;;;;;;;7.95;4.88;;;;;;;14.14;95.91;98526.59;4958176;28;20592;-68
2023/07/14 04:49:42;;;;;;;6.88;5.15;;;;;;;14.18;95.93;98512.72;4958027;28;20061;-68
2023/07/14 04:52:07;;;;;;;9.63;5.05;;;;;;;14.18;95.48;98534.16;4958091;28;20050;-67
2023/07/14 04:54:35;;;;;;;5.68;4.82;;;;;;;14.19;95.20;98535.00;4958194;28;20065;-67
2023/07/14 04:57:00;;;;;;;11.65;5.40;;;;;;;14.23;95.50;98508.69;4956820;28;20058;-67
2023/07/14 04:59:25;;;;;;;9.32;5.32;;;;;;;14.27;95.33;98515.44;4973367;28;20061;-67
2023/07/14 05:01:50;;;;;;;8.00;5.32;;;;;;;14.27;95.04;98510.91;4924980;28;20050;-66
2023/07/14 05:04:15;;;;;;;9.77;5.85;;;;;;;14.29;95.13;98511.59;4956355;28;20500;-66
2023/07/14 05:06:41;;;;;;;8.82;4.78;;;;;;;14.35;95.50;98513.63;4957877;28;20077;-66
2023/07/14 05:09:07;;;;;;;6.80;4.80;;;;;;;14.43;95.39;98519.06;4957653;28;20049;-66
2023/07/14 05:11:32;;;;;;;10.15;5.78;;;;;;;14.56;95.43;98510.56;4957619;28;20042;-66
2023/07/14 05:13:57;;;;;;;8.82;5.82;;;;;;;14.68;95.95;98514.63;4957733;28;20053;-66
2023/07/14 05:16:22;;;;;;;8.60;6.38;;;;;;;14.74;95.99;98535.44;4957736;28;20409;-66
2023/07/14 05:18:48;;;;;;;9.07;6.22;;;;;;;14.79;96.06;98532.25;4956437;28;20046;-67
2023/07/14 05:21:13;;;;;;;10.27;8.18;;;;;;;14.82;96.07;98513.16;4957593;28;20041;-67
2023/07/14 05:23:39;;;;;;;13.80;9.60;;;;;;;14.89;96.24;98514.19;4955817;28;20811;-67
2023/07/14 05:26:04;;;;;;;8.27;5.53;;;;;;;14.92;96.21;98519.22;4957433;28;20432;-66
2023/07/14 05:28:30;;;;;;;8.82;6.38;;;;;;;14.97;96.31;98521.41;4957619;28;20046;-66
2023/07/14 05:30:55;;;;;;;9.10;6.65;;;;;;;15.01;95.96;98525.47;4955724;28;20540;-65
2023/07/14 05:33:21;;;;;;;9.95;6.40;;;;;;;15.08;95.67;98538.03;4957236;28;20045;-66
2023/07/14 05:35:48;;;;;;;9.55;6.95;;;;;;;15.15;95.63;98528.31;4957246;28;20433;-65
2023/07/14 05:38:14;;;;;;;9.73;6.63;;;;;;;15.18;95.60;98543.25;4955756;28;20061;-66
2023/07/14 05:40:40;;;;;;;7.50;5.90;;;;;;;15.16;95.33;98529.16;4957301;28;20397;-66
2023/07/14 05:43:05;;;;;;;9.98;5.95;;;;;;;15.20;95.52;98525.16;4956926;28;20413;-67
2023/07/14 05:45:40;;;;;;;7.35;5.93;;;;;;;15.28;95.00;98527.81;4957118;28;20038;-67
2023/07/14 05:48:05;;;;;;;;;;;;;;;15.46;94.79;98531.19;4957452;28;20046;-67
2023/07/14 05:50:30;;;;;;;8.07;5.50;;;;;;;15.37;94.96;98542.09;4971682;28;19928;-67
2023/07/14 05:52:55;;;;;;;9.25;7.28;;;;;;;15.46;94.74;98535.75;4955198;28;20050;-67
2023/07/14 05:55:20;;;;;;;13.15;11.15;;;;;;;15.53;94.52;98537.59;4955026;28;20053;-67
2023/07/14 05:57:45;;;;;;;13.15;11.38;;;;;;;15.58;94.44;98545.16;4956947;28;20492;-68
2023/07/14 06:00:16;;;;;;;12.10;8.18;;;;;;;15.64;93.97;98532.91;4956989;28;20034;-67
2023/07/14 06:02:46;;;;;;;9.18;7.22;;;;;;;15.70;93.26;98543.81;4955256;28;20493;-67
2023/07/14 06:05:13;;;;;;;8.77;6.68;;;;;;;15.66;92.74;98536.28;4956943;28;20560;-67
2023/07/14 06:07:40;;;;;;;9.05;6.38;;;;;;;15.65;92.32;98545.34;4971712;28;20513;-67
2023/07/14 06:10:07;;;;;;;9.93;6.18;;;;;;;15.57;92.26;98555.09;4956508;28;20501;-66
2023/07/14 06:12:33;;;;;;;8.35;5.75;;;;;;;15.54;91.71;98543.78;4939543;28;20050;-66
2023/07/14 06:14:58;;;;;;;11.07;6.38;;;;;;;15.52;91.56;98549.34;4956537;28;20038;-66
2023/07/14 06:17:23;;;;;;;8.70;6.55;;;;;;;15.52;91.03;98535.91;4956400;28;20046;-66
2023/07/14 06:19:49;;;;;;;9.25;6.55;;;;;;;15.57;91.36;98549.72;4955063;28;20046;-67
2023/07/14 06:22:14;;;;;;;8.40;5.80;;;;;;;15.58;91.46;98566.66;4955416;28;20053;-67
2023/07/14 06:24:40;;;;;;;7.38;6.07;;;;;;;15.65;91.58;98545.34;4956487;28;20038;-67
2023/07/14 06:27:06;;;;;;;11.43;7.70;;;;;;;15.68;91.18;98550.38;4956207;28;20434;-67
2023/07/14 06:29:31;;;;;;;9.48;7.18;;;;;;;15.70;90.73;98554.56;4956363;28;20053;-68
2023/07/14 06:31:58;;;;;;;12.63;6.75;;;;;;;15.71;90.95;98545.50;4956017;28;20042;-67
2023/07/14 06:34:24;;;;;;;9.18;6.47;;;;;;;15.69;90.58;98568.19;4956298;28;20054;-67
2023/07/14 06:36:49;;;;;;;9.88;7.03;;;;;;;15.68;90.13;98555.75;4955622;28;20053;-66
2023/07/14 06:39:14;;;;;;;10.43;6.70;;;;;;;15.67;90.15;98560.28;4954644;28;20069;-66
2023/07/14 06:41:39;;;;;;;9.50;6.43;;;;;;;15.66;90.05;98579.25;4956786;28;20053;-66
2023/07/14 06:44:10;;;;;;;9.60;6.70;;;;;;;15.67;89.62;98573.72;4971252;28;20088;-66
2023/07/14 06:46:35;;;;;;;9.45;6.97;;;;;;;15.63;89.31;98558.09;4955807;28;20065;-66
2023/07/14 06:49:00;;;;;;;9.77;5.85;;;;;;;15.64;89.86;98584.81;4956035;28;20038;-67
2023/07/14 06:51:25;;;;;;;7.13;5.68;;;;;;;15.69;89.74;98574.38;4956289;28;20865;-66
2023/07/14 06:53:51;;;;;;;7.38;5.80;;;;;;;15.80;90.11;98575.91;4956166;28;20046;-66
2023/07/14 06:56:17;;;;;;;14.32;5.45;;;;;;;15.85;89.95;98574.38;4955572;28;20058;-66
2023/07/14 06:58:43;;;;;;;8.57;5.50;;;;;;;15.92;89.60;98590.66;4955914;28;20049;-65
2023/07/14 07:01:09;;;;;;;9.48;5.80;;;;;;;15.97;89.15;98574.88;4970799;28;20387;-65
2023/07/14 07:03:35;;;;;;;11.85;6.07;;;;;;;16.01;88.81;98578.91;4970612;28;20065;-66
2023/07/14 07:06:01;;;;;;;9.68;6.05;;;;;;;16.06;88.47;98581.06;4951342;28;20045;-66
2023/07/14 07:08:34;;;;;;;10.77;5.45;;;;;;;16.11;88.42;98584.09;4935029;28;20058;-65
2023/07/14 07:10:59;;;;;;;11.13;5.53;;;;;;;16.07;87.87;98577.38;4945986;28;20046;-66
2023/07/14 07:13:24;;;;;;;7.18;5.20;;;;;;;16.07;88.00;98578.22;4955595;28;20053;-65
2023/07/14 07:15:50;;;;;;;12.52;6.50;;;;;;;16.09;87.48;98572.69;4954156;28;20058;-65
2023/07/14 07:18:19;;;;;;;11.15;6.50;;;;;;;16.18;87.68;98598.53;4955643;28;20046;-66
2023/07/14 07:20:44;;;;;;;7.45;5.60;;;;;;;16.38;87.85;98585.53;4955821;28;20053;-67
2023/07/14 07:23:10;;;;;;;8.40;5.85;;;;;;;16.59;87.56;98583.16;4955693;28;20042;-67
2023/07/14 07:25:36;;;;;;;6.28;5.07;;;;;;;16.73;87.75;98612.03;4955440;28;20057;-69
2023/07/14 07:28:02;;;;;;;9.02;5.50;;;;;;;16.86;86.33;98587.25;4954578;28;20414;-66
2023/07/14 07:30:27;;;;;;;13.48;6.80;;;;;;;16.94;85.40;98582.69;4955381;28;20059;-65
2023/07/14 07:32:52;;;;;;;9.02;5.72;;;;;;;17.01;85.06;98589.06;4970614;28;20042;-66
2023/07/14 07:35:18;;;;;;;7.97;5.38;;;;;;;17.01;84.66;98589.06;4922073;28;20054;-67
2023/07/14 07:37:43;;;;;;;11.85;6.18;;;;;;;16.94;84.08;98614.97;4955491;28;20043;-68
2023/07/14 07:40:11;;;;;;;10.52;6.32;;;;;;;16.82;83.11;98600.22;4954354;28;20416;-65
2023/07/14 07:42:37;;;;;;;10.63;6.05;;;;;;;16.70;82.99;98612.41;4955383;28;20046;-65
2023/07/14 07:45:27;;;;;;;9.25;6.32;;;;;;;16.71;83.40;98614.06;4955744;28;20046;-66
2023/07/14 07:47:52;;;;;;;7.93;5.88;;;;;;;16.48;84.20;98624.69;4970734;28;20046;-66
2023/07/14 07:50:19;;;;;;;12.50;6.55;;;;;;;16.44;84.22;98606.41;4959089;28;20057;-66
2023/07/14 07:52:45;;;;;;;8.23;5.90;;;;;;;16.42;84.62;98603.03;4959240;28;20049;-65
2023/07/14 07:55:11;;;;;;;10.07;6.55;;;;;;;16.47;84.93;98625.72;4958963;28;20045;-66
2023/07/14 07:57:36;;;;;;;10.38;6.18;;;;;;;16.52;85.05;98612.59;4959329;28;20046;-67
2023/07/14 08:00:03;;;;;;;7.63;5.78;;;;;;;16.55;84.49;98612.25;4959235;28;20042;-67
2023/07/14 08:02:37;;;;;;;10.15;6.07;;;;;;;16.57;84.67;98612.09;4958971;28;20073;-67
2023/07/14 08:05:03;;;;;;;9.10;5.50;;;;;;;16.50;85.09;98616.44;4959014;28;20042;-67
2023/07/14 08:07:29;;;;;;;10.88;6.78;;;;;;;16.46;84.72;98609.75;4959040;28;20050;-68
2023/07/14 08:09:56;;;;;;;10.10;6.40;;;;;;;16.39;85.20;98614.13;4958784;28;20053;-68
2023/07/14 08:12:21;;;;;;;8.95;7.13;;;;;;;16.36;84.82;98593.81;4958713;28;20049;-67
2023/07/14 08:14:54;;;;;;;11.63;6.97;;;;;;;16.37;84.28;98643.88;4958865;28;20061;-67
2023/07/14 08:17:24;;;;;;;10.82;7.43;;;;;;;16.38;83.94;98629.44;4958766;28;20050;-67
2023/07/14 08:19:50;;;;;;;11.82;6.70;;;;;;;16.37;84.37;98632.28;4957482;28;20500;-66
2023/07/14 08:22:15;;;;;;;9.48;7.15;;;;;;;16.36;83.94;98633.31;4958671;28;20508;-66
2023/07/14 08:24:41;;;;;;;12.63;7.38;;;;;;;16.37;84.45;98654.66;4958587;28;20057;-67
2023/07/14 08:27:06;;;;;;;9.43;5.97;;;;;;;16.42;84.62;98635.31;4958423;28;20049;-66
2023/07/14 08:29:33;;;;;;;9.85;6.22;;;;;;;16.49;84.67;98631.75;4958622;28;20413;-68
2023/07/14 08:31:58;;;;;;;15.88;7.00;;;;;;;16.55;84.16;98624.88;4958266;28;20050;-65
2023/07/14 08:34:27;;;;;;;14.13;7.97;;;;;;;16.54;83.89;98644.72;4958415;28;20078;-66
2023/07/14 08:36:53;;;;;;;9.95;7.13;;;;;;;16.55;83.59;98662.53;4958114;28;20045;-67
2023/07/14 08:39:18;;;;;;;9.07;6.15;;;;;;;16.56;83.90;98637.31;4941093;28;20042;-67
2023/07/14 08:41:46;;;;;;;13.52;8.98;;;;;;;16.55;83.42;98651.78;4958323;28;20046;-67
2023/07/14 08:44:42;;;;;;;11.38;7.65;;;;;;;16.68;83.60;98635.97;4958265;28;20054;-66
2023/07/14 08:47:16;;;;;;;8.80;7.18;;;;;;;16.70;83.76;98645.53;4958793;28;20042;-67
2023/07/14 08:49:48;;;;;;;9.07;7.32;;;;;;;16.73;83.93;98633.56;4958342;28;20512;-66
2023/07/14 08:52:28;;;;;;;10.88;6.43;;;;;;;16.84;84.14;98656.59;4958040;28;20046;-67
2023/07/14 08:55:05;;;;;;;10.77;6.70;;;;;;;16.85;84.36;98634.03;4958068;28;20046;-67
2023/07/14 08:57:44;;;;;;;10.35;6.72;;;;;;;16.86;84.00;98633.88;4958099;28;20065;-67
2023/07/14 09:00:17;;;;;;;8.43;5.93;;;;;;;16.86;83.65;98633.88;4955934;28;20421;-66
2023/07/14 09:02:55;;;;;;;8.30;6.07;;;;;;;16.99;84.26;98628.78;4958012;28;20042;-67
2023/07/14 09:05:26;;;;;;;9.60;6.55;;;;;;;17.06;84.03;98640.50;4958017;28;20055;-67
2023/07/14 09:07:52;;;;;;;12.40;6.88;;;;;;;17.12;83.89;98641.69;4956557;28;20041;-67
2023/07/14 09:10:18;;;;;;;8.15;5.70;;;;;;;17.17;83.80;98608.81;4972791;28;20050;-67
2023/07/14 09:12:59;;;;;;;9.77;6.70;;;;;;;17.25;83.15;98630.34;4957821;28;20050;-67
2023/07/14 09:15:26;;;;;;;10.10;5.65;;;;;;;17.13;83.31;98634.44;4956180;28;20089;-66
2023/07/14 09:18:00;;;;;;;8.27;5.60;;;;;;;17.09;83.08;98627.72;4957535;28;20505;-67
2023/07/14 09:20:53;;;;;;;9.48;6.10;;;;;;;17.13;82.88;98634.44;4940887;28;20529;-67
2023/07/14 09:24:03;;;;;;;8.80;5.50;;;;;;;17.11;83.23;98636.47;4956327;28;20042;-67
2023/07/14 09:26:36;;;;;;;9.15;6.15;;;;;;;17.02;83.56;98635.66;4938482;28;20809;-67
2023/07/14 09:29:11;;;;;;;8.85;6.30;;;;;;;16.99;84.02;98634.16;4938321;28;20413;-67
2023/07/14 09:31:39;;;;;;;;;;;;;;;17.14;84.08;98644.22;4938400;28;20050;-67
2023/07/14 09:34:15;;;;;;;9.07;5.55;;;;;;;16.97;84.62;98654.19;4955672;28;19921;-66
2023/07/14 09:36:41;;;;;;;6.75;5.07;;;;;;;16.87;84.78;98646.31;4957024;28;20046;-67
2023/07/14 09:39:26;;;;;;;6.88;5.13;;;;;;;16.90;84.36;98645.97;4957011;28;20500;-67
2023/07/14 09:41:54;;;;;;;11.63;5.68;;;;;;;16.81;84.72;98647.03;4953174;28;20042;-66
2023/07/14 09:44:19;;;;;;;10.00;5.75;;;;;;;16.87;84.70;98645.47;4941842;28;20043;-66
2023/07/14 09:46:47;;;;;;;8.10;5.60;;;;;;;16.90;84.75;98645.97;4938687;28;20058;-67
2023/07/14 09:49:42;;;;;;;8.85;5.32;;;;;;;17.06;84.17;98642.38;4943929;28;20050;-67
2023/07/14 09:52:12;;;;;;;9.57;5.60;;;;;;;17.08;84.33;98639.50;4940200;28;20054;-67
2023/07/14 09:54:52;;;;;;;10.07;5.75;;;;;;;17.17;83.72;98638.44;4940531;28;20050;-67
2023/07/14 09:57:21;;;;;;;8.05;4.90;;;;;;;17.14;83.96;98760.84;4938972;28;20050;-67
2023/07/14 10:00:00;;;;;;;6.68;5.07;;;;;;;17.24;83.41;98650.22;4942993;28;20054;-66
2023/07/14 10:02:32;;;;;;;10.18;5.72;;;;;;;17.21;83.53;98646.00;4949971;28;20076;-67
2023/07/14 10:05:21;;;;;;;5.57;4.40;;;;;;;17.25;83.23;98638.44;4943298;28;20038;-67
2023/07/14 10:07:47;;;;;;;6.82;5.28;;;;;;;17.28;83.37;98643.44;4955344;28;20057;-68
2023/07/14 10:10:19;;;;;;;8.25;5.60;;;;;;;17.34;83.50;98648.97;4939631;28;20050;-67
2023/07/14 10:12:48;;;;;;;11.43;4.93;;;;;;;17.39;83.22;98656.50;4936363;28;20054;-67
2023/07/14 10:15:35;;;;;;;7.28;5.05;;;;;;;17.47;82.82;98669.13;4940675;28;20053;-68
2023/07/14 10:18:04;;;;;;;8.80;5.30;;;;;;;17.42;82.81;98666.94;4939234;28;20417;-66
2023/07/14 10:20:31;;;;;;;6.00;4.22;;;;;;;17.41;82.07;98702.97;4954937;28;20046;-67
2023/07/14 10:22:58;;;;;;;7.38;4.78;;;;;;;17.38;82.07;98671.84;4940159;28;20046;-66
2023/07/14 10:25:26;;;;;;;6.25;4.78;;;;;;;17.37;82.32;98680.97;4956708;28;20042;-65
2023/07/14 10:28:16;;;;;;;5.57;3.80;;;;;;;17.40;81.96;98669.81;4941792;28;20425;-65
2023/07/14 10:30:48;;;;;;;5.50;4.20;;;;;;;17.34;81.74;98680.47;4936842;28;20047;-66
2023/07/14 10:34:08;;;;;;;6.80;3.65;;;;;;;17.37;81.88;98669.34;4937317;28;20046;-67
2023/07/14 10:36:37;;;;;;;5.20;4.07;;;;;;;17.25;82.30;98676.13;4921772;28;20069;-66
2023/07/14 10:39:14;;;;;;;5.85;4.00;;;;;;;17.28;82.66;98675.75;4929528;28;20548;-66
2023/07/14 10:41:45;;;;;;;7.40;4.53;;;;;;;17.25;82.00;98670.75;4933090;28;20042;-67
2023/07/14 10:44:25;;;;;;;8.65;4.78;;;;;;;17.30;82.34;98685.34;4930416;28;20046;-66
2023/07/14 10:46:57;;;;;;;7.15;5.32;;;;;;;17.26;81.56;98680.50;4929401;28;20194;-66
2023/07/14 10:49:36;;;;;;;10.77;5.28;;;;;;;17.32;81.88;98682.50;4930279;28;20047;-68
2023/07/14 10:52:41;;;;;;;9.68;4.70;;;;;;;17.36;81.48;98684.66;4914147;28;20054;-67
2023/07/14 10:55:29;;;;;;;9.73;5.65;;;;;;;17.36;81.52;98695.44;4915229;28;20051;-66
2023/07/14 10:58:05;;;;;;;12.60;5.18;;;;;;;17.30;81.95;98703.38;4915046;29;20243;-66
2023/07/14 11:00:33;;;;;;;7.13;4.90;;;;;;;17.25;82.06;98695.84;4915102;29;20059;-66
2023/07/14 11:03:17;;;;;;;6.85;4.93;;;;;;;17.36;81.81;98700.00;4932871;28;20557;-67
2023/07/14 11:06:07;;;;;;;6.63;4.85;;;;;;;17.35;81.89;98693.75;4918468;28;20073;-65
2023/07/14 11:08:33;;;;;;;7.13;4.25;;;;;;;17.36;82.17;98697.28;4932814;28;20039;-69
2023/07/14 11:11:25;;;;;;;8.02;4.50;;;;;;;17.41;81.72;98694.91;4915557;28;20050;-65
2023/07/14 11:14:12;;;;;;;7.80;4.18;;;;;;;17.54;81.60;98703.25;4953938;28;20054;-66
2023/07/14 11:16:57;;;;;;;7.07;4.57;;;;;;;17.49;81.22;98710.22;4955346;28;20046;-68
2023/07/14 11:19:52;;;;;;;8.65;3.78;;;;;;;17.53;80.97;98706.13;4945465;28;20058;-63
2023/07/14 11:22:50;;;;;;;7.22;3.83;;;;;;;17.49;81.18;98708.34;4937396;28;20127;-64
2023/07/14 11:25:24;;;;;;;5.68;4.25;;;;;;;17.43;81.22;98701.78;4940382;28;20093;-66
2023/07/14 11:28:11;;;;;;;13.35;4.03;;;;;;;17.48;80.74;98709.38;4939483;28;20513;-63
2023/07/14 11:30:41;;;;;;;8.80;3.92;;;;;;;17.40;80.88;98702.13;4974345;28;20038;-64
2023/07/14 11:33:24;;;;;;;8.05;4.57;;;;;;;17.48;80.59;98703.13;4959472;28;20058;-64
2023/07/14 11:36:08;;;;;;;7.40;4.00;;;;;;;17.53;80.62;98700.72;4953857;28;20050;-63
2023/07/14 11:38:51;;;;;;;7.22;4.05;;;;;;;17.68;80.66;98705.25;4940391;28;20410;-63
2023/07/14 11:41:18;;;;;;;10.98;4.22;;;;;;;17.70;80.70;98708.59;4938696;28;20046;-63
2023/07/14 11:43:46;;;;;;;6.05;3.58;;;;;;;17.72;80.30;98706.53;4940226;28;20057;-63
2023/07/14 11:46:20;;;;;;;4.43;3.58;;;;;;;17.75;79.73;98694.56;4940383;28;20636;-63